createdAt,value
2022-09-20T00:01:46.515Z,53.60
2022-09-20T00:04:26.941Z,53.80
2022-09-20T00:07:13.461Z,54.90
2022-09-20T00:10:01.374Z,54.20
2022-09-20T00:12:41.472Z,54.50
2022-09-20T00:15:22.129Z,54.50
2022-09-20T00:18:08.480Z,54.60
2022-09-20T00:20:50.701Z,54.10
2022-09-20T00:23:37.456Z,54.30
2022-09-20T00:26:17.986Z,54.10
2022-09-20T00:29:04.452Z,54.30
2022-09-20T00:31:51.568Z,54.20
2022-09-20T00:34:50.448Z,54.00
2022-09-20T00:37:37.497Z,53.90
2022-09-20T00:40:23.664Z,53.90
2022-09-20T00:43:10.451Z,53.90
2022-09-20T00:46:03.554Z,53.90
2022-09-20T00:48:50.521Z,53.90
2022-09-20T00:51:37.464Z,53.70
2022-09-20T00:54:20.655Z,53.60
2022-09-20T00:57:07.472Z,53.90
2022-09-20T00:59:57.553Z,53.80
2022-09-20T01:02:38.494Z,53.80
2022-09-20T01:05:26.483Z,53.70
2022-09-20T01:08:06.509Z,53.70
2022-09-20T01:10:53.488Z,53.70
2022-09-20T01:13:40.444Z,53.80
2022-09-20T01:16:28.734Z,53.70
2022-09-20T01:19:23.501Z,53.80
2022-09-20T01:22:17.527Z,53.70
2022-09-20T01:25:27.461Z,53.80
2022-09-20T01:28:21.456Z,53.80
2022-09-20T01:31:11.567Z,53.70
2022-09-20T01:33:59.465Z,53.80
2022-09-20T01:36:57.480Z,53.60
2022-09-20T01:39:46.529Z,53.40
2022-09-20T01:42:40.468Z,53.60
2022-09-20T01:45:40.502Z,53.60
2022-09-20T01:48:40.535Z,53.40
2022-09-20T01:51:39.480Z,53.30
2022-09-20T01:54:35.539Z,53.40
2022-09-20T01:57:53.476Z,53.40
2022-09-20T02:01:18.648Z,53.60
2022-09-20T02:04:15.485Z,53.70
2022-09-20T02:07:34.489Z,53.60
2022-09-20T02:10:26.534Z,53.70
2022-09-20T02:13:35.458Z,53.60
2022-09-20T02:16:30.574Z,53.50
2022-09-20T02:19:23.471Z,53.70
2022-09-20T02:22:19.533Z,53.70
2022-09-20T02:25:21.608Z,53.50
2022-09-20T02:28:32.505Z,53.50
2022-09-20T02:31:38.630Z,54.50
2022-09-20T02:35:02.489Z,53.70
2022-09-20T02:38:04.520Z,53.60
2022-09-20T02:40:51.469Z,53.50
2022-09-20T02:43:45.557Z,53.60
2022-09-20T02:46:54.462Z,53.40
2022-09-20T02:50:06.631Z,53.40
2022-09-20T02:53:20.474Z,53.60
2022-09-20T02:56:25.485Z,53.60
2022-09-20T02:59:06.092Z,53.60
2022-09-20T03:02:25.544Z,53.50
2022-09-20T03:05:36.570Z,53.50
2022-09-20T03:09:13.492Z,53.60
2022-09-20T03:12:35.457Z,53.60
2022-09-20T03:15:43.845Z,54.60
2022-09-20T03:18:40.465Z,53.70
2022-09-20T03:21:40.475Z,53.70
2022-09-20T03:24:30.575Z,53.90
2022-09-20T03:27:20.486Z,53.90
2022-09-20T03:30:26.467Z,53.90
2022-09-20T03:33:24.545Z,53.90
2022-09-20T03:36:48.478Z,53.90
2022-09-20T03:40:03.597Z,54.00
2022-09-20T03:42:55.469Z,54.10
2022-09-20T03:45:50.575Z,54.10
2022-09-20T03:48:56.478Z,54.10
2022-09-20T03:52:08.477Z,54.10
2022-09-20T03:55:25.553Z,53.90
2022-09-20T03:58:17.473Z,53.80
2022-09-20T04:01:46.489Z,53.90
2022-09-20T04:04:33.525Z,54.00
2022-09-20T04:07:41.502Z,54.10
2022-09-20T04:10:43.482Z,54.00
2022-09-20T04:14:18.500Z,54.30
2022-09-20T04:17:18.551Z,54.00
2022-09-20T04:20:14.485Z,54.00
2022-09-20T04:23:07.479Z,54.00
2022-09-20T04:26:01.488Z,54.00
2022-09-20T04:29:23.602Z,53.80
2022-09-20T04:32:44.489Z,53.70
2022-09-20T04:36:05.490Z,53.80
2022-09-20T04:38:46.681Z,53.60
2022-09-20T04:42:08.479Z,53.60
2022-09-20T04:45:17.483Z,53.80
2022-09-20T04:48:16.576Z,54.00
2022-09-20T04:51:27.520Z,54.10
2022-09-20T04:54:27.501Z,54.10
2022-09-20T04:57:50.312Z,53.90
2022-09-20T05:01:02.561Z,54.10
2022-09-20T05:03:42.578Z,55.10
2022-09-20T05:07:01.481Z,54.00
2022-09-20T05:10:21.727Z,53.80
2022-09-20T05:13:31.498Z,53.70
2022-09-20T05:16:23.158Z,53.60
2022-09-20T05:19:13.504Z,53.60
2022-09-20T05:22:28.485Z,54.50
2022-09-20T05:25:45.056Z,53.50
2022-09-20T05:28:43.490Z,53.40
2022-09-20T05:31:51.530Z,53.30
2022-09-20T05:34:44.027Z,53.30
2022-09-20T05:37:46.492Z,53.20
2022-09-20T05:40:41.472Z,53.20
2022-09-20T05:43:38.505Z,53.00
2022-09-20T05:46:30.486Z,53.00
2022-09-20T05:49:36.576Z,53.10
2022-09-20T05:52:48.512Z,53.00
2022-09-20T05:55:44.181Z,52.90
2022-09-20T05:59:01.530Z,53.00
2022-09-20T06:01:57.422Z,53.00
2022-09-20T06:04:54.502Z,53.00
2022-09-20T06:07:59.422Z,52.90
2022-09-20T06:11:04.513Z,53.00
2022-09-20T06:14:10.478Z,53.00
2022-09-20T06:17:19.493Z,52.90
2022-09-20T06:20:48.488Z,53.10
2022-09-20T06:23:37.559Z,53.00
2022-09-20T06:26:34.472Z,53.10
2022-09-20T06:29:35.548Z,53.40
2022-09-20T06:32:15.481Z,53.40
2022-09-20T06:35:02.677Z,53.40
2022-09-20T06:38:07.501Z,53.30
2022-09-20T06:41:09.612Z,53.20
2022-09-20T06:43:56.493Z,53.10
2022-09-20T06:46:43.486Z,53.00
2022-09-20T06:49:30.489Z,54.00
2022-09-20T06:52:22.490Z,52.90
2022-09-20T06:55:07.378Z,52.80
2022-09-20T06:57:53.509Z,52.80
2022-09-20T07:00:33.544Z,52.70
2022-09-20T07:03:20.509Z,52.60
2022-09-20T07:06:00.581Z,52.70
2022-09-20T07:08:48.509Z,52.40
2022-09-20T07:11:35.488Z,52.00
2022-09-20T07:14:16.115Z,51.60
2022-09-20T07:17:02.484Z,51.60
2022-09-20T07:19:43.048Z,51.30
2022-09-20T07:22:29.506Z,50.60
2022-09-20T07:25:24.489Z,49.70
2022-09-20T07:28:11.513Z,48.30
2022-09-20T07:30:51.882Z,47.90
2022-09-20T07:33:38.481Z,48.10
2022-09-20T07:36:25.504Z,48.30
2022-09-20T07:39:05.961Z,48.50
2022-09-20T07:41:54.496Z,48.80
2022-09-20T07:44:43.286Z,49.00
2022-09-20T07:47:22.513Z,49.10
2022-09-20T07:50:11.645Z,49.40
2022-09-20T07:52:52.490Z,49.50
2022-09-20T07:55:34.308Z,49.70
2022-09-20T07:58:21.493Z,50.00
2022-09-20T08:01:10.670Z,50.00
2022-09-20T08:03:58.497Z,50.00
2022-09-20T08:06:47.516Z,49.90
2022-09-20T08:09:27.558Z,49.70
2022-09-20T08:15:16.652Z,49.80
2022-09-20T08:18:03.484Z,50.00
2022-09-20T08:20:46.576Z,50.00
2022-09-20T08:23:33.516Z,50.00
2022-09-20T08:26:31.521Z,50.10
2022-09-20T08:29:18.577Z,50.10
2022-09-20T08:31:59.520Z,49.90
2022-09-20T08:34:49.226Z,49.80
2022-09-20T08:37:30.168Z,49.50
2022-09-20T08:40:22.586Z,49.30
2022-09-20T08:43:05.521Z,48.40
2022-09-20T08:45:52.536Z,47.60
2022-09-20T08:48:44.514Z,46.80
2022-09-20T08:51:36.566Z,46.80
2022-09-20T08:54:20.534Z,46.70
2022-09-20T08:57:12.833Z,46.60
2022-09-20T08:59:59.524Z,46.50
2022-09-20T09:02:48.507Z,46.10
2022-09-20T09:05:36.585Z,45.00
2022-09-20T09:08:37.640Z,44.00
2022-09-20T09:11:30.512Z,43.30
2022-09-20T09:14:58.538Z,43.00
2022-09-20T09:17:38.587Z,42.60
2022-09-20T09:20:28.519Z,42.80
2022-09-20T09:23:11.620Z,42.70
2022-09-20T09:26:01.535Z,42.90
2022-09-20T09:28:41.625Z,43.00
2022-09-20T09:31:35.560Z,43.20
2022-09-20T09:34:38.758Z,43.20
2022-09-20T09:37:35.509Z,43.50
2022-09-20T09:40:23.721Z,43.30
2022-09-20T09:43:10.510Z,44.40
2022-09-20T09:45:50.808Z,43.40
2022-09-20T09:48:39.729Z,43.30
2022-09-20T09:51:26.498Z,43.20
2022-09-20T09:54:14.521Z,43.00
2022-09-20T09:57:17.331Z,42.80
2022-09-20T10:00:17.802Z,42.80
2022-09-20T10:03:36.496Z,42.80
2022-09-20T10:06:44.981Z,43.00
2022-09-20T10:09:43.528Z,43.20
2022-09-20T10:12:55.139Z,43.40
2022-09-20T10:15:47.503Z,43.40
2022-09-20T10:18:59.195Z,43.40
2022-09-20T10:22:24.511Z,43.40
2022-09-20T10:25:30.534Z,43.40
2022-09-20T10:28:22.625Z,43.60
2022-09-20T10:31:25.910Z,43.40
2022-09-20T10:34:22.529Z,43.40
2022-09-20T10:37:03.382Z,43.20
2022-09-20T10:39:52.573Z,42.90
2022-09-20T10:43:10.550Z,42.80
2022-09-20T10:46:31.867Z,42.50
2022-09-20T10:49:33.538Z,42.40
2022-09-20T10:52:45.545Z,42.20
2022-09-20T10:55:57.539Z,42.20
2022-09-20T10:59:16.536Z,42.00
2022-09-20T11:02:33.578Z,42.00
2022-09-20T11:05:29.542Z,42.00
2022-09-20T11:08:22.633Z,41.80
2022-09-20T11:11:14.513Z,41.70
2022-09-20T11:14:14.849Z,41.60
2022-09-20T11:17:09.553Z,41.50
2022-09-20T11:20:08.014Z,41.50
2022-09-20T11:22:59.526Z,41.50
2022-09-20T11:26:05.543Z,41.40
2022-09-20T11:29:00.544Z,41.40
2022-09-20T11:31:50.709Z,41.40
2022-09-20T11:34:43.542Z,41.30
2022-09-20T11:37:32.543Z,41.20
2022-09-20T11:40:31.576Z,41.10
2022-09-20T11:43:14.104Z,41.00
2022-09-20T11:46:04.640Z,40.90
2022-09-20T11:49:16.100Z,40.90
2022-09-20T11:52:09.536Z,40.70
2022-09-20T11:55:07.622Z,40.70
2022-09-20T11:58:10.541Z,40.70
2022-09-20T12:00:54.379Z,40.50
2022-09-20T12:03:45.544Z,41.40
2022-09-20T12:06:49.544Z,40.40
2022-09-20T12:09:35.055Z,40.30
2022-09-20T12:12:46.512Z,40.40
2022-09-20T12:15:38.552Z,40.50
2022-09-20T12:19:03.543Z,40.40
2022-09-20T12:22:16.594Z,40.40
2022-09-20T12:25:48.530Z,40.40
2022-09-20T12:28:37.819Z,40.40
2022-09-20T12:31:37.636Z,40.30
2022-09-20T12:34:18.120Z,40.40
2022-09-20T12:37:04.545Z,40.40
2022-09-20T12:39:53.603Z,40.40
2022-09-20T12:42:43.563Z,40.30
2022-09-20T12:45:30.943Z,40.20
2022-09-20T12:48:10.560Z,40.20
2022-09-20T12:51:23.308Z,40.30
2022-09-20T12:54:27.544Z,40.10
2022-09-20T12:57:25.216Z,40.10
2022-09-20T13:00:07.548Z,40.30
2022-09-20T13:02:57.653Z,40.20
2022-09-20T13:05:45.538Z,40.20
2022-09-20T13:08:36.644Z,40.20
2022-09-20T13:11:46.559Z,40.30
2022-09-20T13:14:36.610Z,40.30
2022-09-20T13:17:24.528Z,40.30
2022-09-20T13:20:12.548Z,40.30
2022-09-20T13:22:57.041Z,40.30
2022-09-20T13:25:53.549Z,40.30
2022-09-20T13:29:07.794Z,40.30
2022-09-20T13:31:47.590Z,40.50
2022-09-20T13:34:35.583Z,40.60
2022-09-20T13:37:25.598Z,40.60
2022-09-20T13:40:13.573Z,40.50
2022-09-20T13:43:23.260Z,40.50
2022-09-20T13:46:18.686Z,40.50
2022-09-20T13:49:30.540Z,40.30
2022-09-20T13:52:33.562Z,40.30
2022-09-20T13:55:37.480Z,40.50
2022-09-20T13:58:34.572Z,40.40
2022-09-20T14:01:40.582Z,40.50
2022-09-20T14:04:24.186Z,40.60
2022-09-20T14:07:12.550Z,40.80
2022-09-20T14:10:00.134Z,41.00
2022-09-20T14:12:40.812Z,41.10
2022-09-20T14:15:21.681Z,41.10
2022-09-20T14:18:10.565Z,41.20
2022-09-20T14:20:58.112Z,41.20
2022-09-20T14:23:38.528Z,41.30
2022-09-20T14:26:41.554Z,41.30
2022-09-20T14:29:47.553Z,41.30
2022-09-20T14:32:41.650Z,41.20
2022-09-20T14:35:24.538Z,42.10
2022-09-20T14:38:16.301Z,41.10
2022-09-20T14:40:58.565Z,41.00
2022-09-20T14:43:40.580Z,41.10
2022-09-20T14:46:31.563Z,41.10
2022-09-20T14:49:45.555Z,42.10
2022-09-20T14:52:38.669Z,40.90
2022-09-20T14:55:37.432Z,41.00
2022-09-20T14:58:25.576Z,41.00
2022-09-20T15:01:29.546Z,41.00
2022-09-20T15:04:22.560Z,41.10
2022-09-20T15:07:06.227Z,42.10
2022-09-20T15:09:52.573Z,41.10
2022-09-20T15:12:39.624Z,41.00
2022-09-20T15:15:21.556Z,41.00
2022-09-20T15:18:09.574Z,41.10
2022-09-20T15:20:56.557Z,41.00
2022-09-20T15:23:44.574Z,40.90
2022-09-20T15:26:39.546Z,40.40
2022-09-20T15:29:26.573Z,40.00
2022-09-20T15:32:13.570Z,40.00
2022-09-20T15:35:00.691Z,39.80
2022-09-20T15:37:40.592Z,39.40
2022-09-20T15:40:28.549Z,39.30
2022-09-20T15:43:08.588Z,39.30
2022-09-20T15:46:00.534Z,40.30
2022-09-20T15:48:40.561Z,39.30
2022-09-20T15:51:30.432Z,39.30
2022-09-20T15:54:14.596Z,39.30
2022-09-20T15:57:01.578Z,39.30
2022-09-20T15:59:41.867Z,39.30
2022-09-20T16:02:29.648Z,39.30
2022-09-20T16:05:17.564Z,39.40
2022-09-20T16:08:04.545Z,39.50
2022-09-20T16:10:44.717Z,39.60
2022-09-20T16:13:31.564Z,39.70
2022-09-20T16:16:20.611Z,39.70
2022-09-20T16:19:19.809Z,39.80
2022-09-20T16:22:07.874Z,39.80
2022-09-20T16:24:48.077Z,39.90
2022-09-20T16:27:34.565Z,40.00
2022-09-20T16:30:15.739Z,40.10
2022-09-20T16:33:02.573Z,40.00
2022-09-20T16:35:49.657Z,40.10
2022-09-20T16:38:30.577Z,41.30
2022-09-20T16:41:17.652Z,40.50
2022-09-20T16:43:58.573Z,40.50
2022-09-20T16:46:45.578Z,40.60
2022-09-20T16:49:35.578Z,40.70
2022-09-20T16:52:22.656Z,40.70
2022-09-20T16:55:02.602Z,40.60
2022-09-20T16:57:49.739Z,40.60
2022-09-20T17:00:29.733Z,41.60
2022-09-20T17:03:10.052Z,41.30
2022-09-20T17:05:57.557Z,40.80
2022-09-20T17:08:40.049Z,40.80
2022-09-20T17:11:32.561Z,40.90
2022-09-20T17:14:26.580Z,41.00
2022-09-20T17:17:13.637Z,41.00
2022-09-20T17:19:53.556Z,41.10
2022-09-20T17:22:40.582Z,41.30
2022-09-20T17:25:34.562Z,41.40
2022-09-20T17:28:21.580Z,41.40
2022-09-20T17:31:06.650Z,41.60
2022-09-20T17:33:53.583Z,41.70
2022-09-20T17:36:42.572Z,41.80
2022-09-20T17:39:29.664Z,41.80
2022-09-20T17:42:09.597Z,41.90
2022-09-20T17:44:50.060Z,43.00
2022-09-20T17:47:36.581Z,42.20
2022-09-20T17:50:17.053Z,42.30
2022-09-20T17:53:03.605Z,42.50
2022-09-20T17:55:58.644Z,42.60
2022-09-20T17:58:42.573Z,42.70
2022-09-20T18:01:30.625Z,42.80
2022-09-20T18:04:12.654Z,42.90
2022-09-20T18:07:01.595Z,43.10
2022-09-20T18:09:41.638Z,43.20
2022-09-20T18:12:28.598Z,44.30
2022-09-20T18:15:08.640Z,43.40
2022-09-20T18:17:55.576Z,43.40
2022-09-20T18:20:35.629Z,43.60
2022-09-20T18:23:22.592Z,43.50
2022-09-20T18:26:28.610Z,43.70
2022-09-20T18:29:18.582Z,43.70
2022-09-20T18:32:07.608Z,43.70
2022-09-20T18:34:54.633Z,43.80
2022-09-20T18:37:34.587Z,44.20
2022-09-20T18:40:21.624Z,44.30
2022-09-20T18:43:04.706Z,44.70
2022-09-20T18:45:59.589Z,44.70
2022-09-20T18:48:40.184Z,45.00
2022-09-20T18:51:28.582Z,45.00
2022-09-20T18:54:11.722Z,45.10
2022-09-20T18:56:58.580Z,45.20
2022-09-20T18:59:54.090Z,45.30
2022-09-20T19:02:57.605Z,45.30
2022-09-20T19:05:55.594Z,45.40
2022-09-20T19:08:56.586Z,45.30
2022-09-20T19:11:52.613Z,45.20
2022-09-20T19:15:09.641Z,45.20
2022-09-20T19:18:19.367Z,45.40
2022-09-20T19:21:28.589Z,45.70
2022-09-20T19:24:33.596Z,45.80
2022-09-20T19:27:28.598Z,45.80
2022-09-20T19:30:20.735Z,45.90
2022-09-20T19:33:00.616Z,46.10
2022-09-20T19:35:49.946Z,46.30
2022-09-20T19:39:13.729Z,46.30
2022-09-20T19:42:19.553Z,46.50
2022-09-20T19:45:29.638Z,46.60
2022-09-20T19:48:44.634Z,46.50
2022-09-20T19:51:24.608Z,46.50
2022-09-20T19:54:17.473Z,46.50
2022-09-20T19:57:01.600Z,46.60
2022-09-20T19:59:49.169Z,46.50
2022-09-20T20:02:29.678Z,46.50
2022-09-20T20:05:29.220Z,46.60
2022-09-20T20:08:35.583Z,46.70
2022-09-20T20:12:00.597Z,46.70
2022-09-20T20:15:17.573Z,46.80
2022-09-20T20:18:16.635Z,46.90
2022-09-20T20:20:58.674Z,46.90
2022-09-20T20:23:54.619Z,46.90
2022-09-20T20:26:41.603Z,47.00
2022-09-20T20:29:22.201Z,47.10
2022-09-20T20:32:08.603Z,47.20
2022-09-20T20:34:55.644Z,47.30
2022-09-20T20:37:38.615Z,47.60
2022-09-20T20:40:25.673Z,47.50
2022-09-20T20:43:08.599Z,47.60
2022-09-20T20:45:56.645Z,47.70
2022-09-20T20:48:37.679Z,47.80
2022-09-20T20:51:26.613Z,47.90
2022-09-20T20:54:07.111Z,48.00
2022-09-20T20:56:53.608Z,48.00
2022-09-20T20:59:33.657Z,49.10
2022-09-20T21:02:20.641Z,48.10
2022-09-20T21:05:01.180Z,48.30
2022-09-20T21:07:47.622Z,48.30
2022-09-20T21:10:35.606Z,48.50
2022-09-20T21:13:22.656Z,48.50
2022-09-20T21:16:12.645Z,48.50
2022-09-20T21:18:59.612Z,48.50
2022-09-20T21:21:42.656Z,48.60
2022-09-20T21:24:29.625Z,48.60
2022-09-20T21:27:23.634Z,48.80
2022-09-20T21:30:11.605Z,48.70
2022-09-20T21:32:51.648Z,48.80
2022-09-20T21:35:38.625Z,48.70
2022-09-20T21:38:18.877Z,48.90
2022-09-20T21:41:14.639Z,49.00
2022-09-20T21:44:04.627Z,48.90
2022-09-20T21:46:45.230Z,49.00
2022-09-20T21:49:31.625Z,49.10
2022-09-20T21:52:18.657Z,49.00
2022-09-20T21:54:58.629Z,49.00
2022-09-20T21:57:45.618Z,49.00
2022-09-20T22:00:27.150Z,49.20
2022-09-20T22:03:14.617Z,49.40
2022-09-20T22:05:54.659Z,49.60
2022-09-20T22:08:43.609Z,49.70
2022-09-20T22:11:25.597Z,49.70
2022-09-20T22:14:06.681Z,49.70
2022-09-20T22:16:54.608Z,49.80
2022-09-20T22:19:34.662Z,49.90
2022-09-20T22:22:21.672Z,49.80
2022-09-20T22:25:01.832Z,49.90
2022-09-20T22:27:48.708Z,50.00
2022-09-20T22:30:28.790Z,50.00
2022-09-20T22:33:15.682Z,50.00
2022-09-20T22:35:55.766Z,50.00
2022-09-20T22:38:42.663Z,49.70
2022-09-20T22:41:24.755Z,49.70
2022-09-20T22:44:12.678Z,49.60
2022-09-20T22:46:59.689Z,49.40
2022-09-20T22:49:46.685Z,49.40
2022-09-20T22:52:26.787Z,49.60
2022-09-20T22:55:13.682Z,49.50
2022-09-20T22:58:04.670Z,49.60
2022-09-20T23:00:51.852Z,49.60
2022-09-20T23:03:31.739Z,49.80
2022-09-20T23:06:23.815Z,49.90
2022-09-20T23:09:13.699Z,50.10
2022-09-20T23:12:00.762Z,50.10
2022-09-20T23:14:47.682Z,50.20
2022-09-20T23:17:34.753Z,50.10
2022-09-20T23:20:15.685Z,50.50
2022-09-20T23:22:56.242Z,50.30
2022-09-20T23:25:42.688Z,50.50
2022-09-20T23:28:30.775Z,50.60
2022-09-20T23:31:16.849Z,50.60
2022-09-20T23:33:59.734Z,50.60
2022-09-20T23:36:49.674Z,50.80
2022-09-20T23:39:30.354Z,50.80
2022-09-20T23:42:16.695Z,50.80
2022-09-20T23:45:03.843Z,50.90
2022-09-20T23:47:43.696Z,50.90
2022-09-20T23:50:24.381Z,50.90
2022-09-20T23:53:17.689Z,50.90
2022-09-20T23:56:05.507Z,50.90
2022-09-20T23:58:47.697Z,50.90
